M I D A S
Marine Information and Data Acquisition System
Tripno 1366 of the Zeeleeuw from 2007-11-27 07:43:13 to 2007-11-27 16:04:24
Back to CruiseResearch ActivitiesStationsMapUnderway DataData graphs

EquipmentUnitsComment
TimeDGPSUTC
LatitudeDGPSDM.mWGS84
LongitudeDGPSDM.mWGS84
HeadingGyrodeg 
SOGDGPSknotsSpeed over ground
COGDGPSdegCourse over ground
DepthEcho soundermeters200 kHz
Missing or incorrect values are displayed as -999
Navigation data collected by the RV Zeeleeuw from 2007-11-27 06:57:14 to 2007-11-27 16:15:21
Time Latitude Longitude Heading SOG COG Depth
2007-11-27 06:58:19 51°13.596 2°56.093 125.1 -999 338 -999
2007-11-27 06:59:18 51°13.596 2°56.093 125.1 -999 358 -999
2007-11-27 07:00:19 51°13.597 2°56.094 125.1 -999 19 -999
2007-11-27 07:01:19 51°13.598 2°56.094 125.1 -999 196 -999
2007-11-27 07:02:19 51°13.598 2°56.093 125.1 -999 311 -999
2007-11-27 07:03:19 51°13.598 2°56.094 125.1 -999 176 -999
2007-11-27 07:04:19 51°13.598 2°56.095 125.1 -999 187 -999
2007-11-27 07:05:18 51°13.598 2°56.094 125.1 -999 193 -999
2007-11-27 07:06:19 51°13.598 2°56.095 125.1 -999 19 -999
2007-11-27 07:07:19 51°13.599 2°56.094 125 -999 321 -999
2007-11-27 07:08:19 51°13.598 2°56.092 125 -999 317 -999
2007-11-27 07:09:19 51°13.598 2°56.095 124.9 -999 285 -999
2007-11-27 07:10:19 51°13.598 2°56.096 124.9 -999 319 -999
2007-11-27 07:11:19 51°13.598 2°56.096 124.9 -999 274 -999
2007-11-27 07:12:19 51°13.598 2°56.096 124.9 -999 262 -999
2007-11-27 07:13:19 51°13.6 2°56.094 124.8 -999 185 -999
2007-11-27 07:14:19 51°13.599 2°56.094 124.8 -999 312 -999
2007-11-27 07:15:19 51°13.598 2°56.093 124.7 -999 263 -999
2007-11-27 07:16:19 51°13.598 2°56.094 124.7 -999 337 -999
2007-11-27 07:17:19 51°13.598 2°56.094 124.7 -999 6 -999
2007-11-27 07:18:19 51°13.598 2°56.094 124.6 -999 78 -999
2007-11-27 07:19:19 51°13.598 2°56.095 124.6 -999 20 -999
2007-11-27 07:20:19 51°13.597 2°56.095 124.6 -999 296 -999
2007-11-27 07:21:19 51°13.598 2°56.095 124.6 -999 250 -999
2007-11-27 07:22:19 51°13.598 2°56.095 124.6 -999 355 -999
2007-11-27 07:23:19 51°13.597 2°56.094 124.6 -999 3 -999
2007-11-27 07:24:19 51°13.599 2°56.096 124.6 -999 200 -999
2007-11-27 07:25:19 51°13.599 2°56.097 124.6 -999 178 -999
2007-11-27 07:26:19 51°13.6 2°56.097 124.6 -999 193 -999
2007-11-27 07:27:19 51°13.6 2°56.096 124.5 -999 353 -999
2007-11-27 07:28:19 51°13.6 2°56.095 124.5 -999 309 -999
2007-11-27 07:29:19 51°13.6 2°56.094 124.5 -999 256 -999
2007-11-27 07:30:19 51°13.599 2°56.094 124.5 -999 267 6.2
2007-11-27 07:31:19 51°13.599 2°56.094 124.5 -999 207 6.2
2007-11-27 07:32:19 51°13.599 2°56.095 124.5 -999 186 6.2
2007-11-27 07:33:19 51°13.599 2°56.095 124.5 -999 150 6.2
2007-11-27 07:34:19 51°13.601 2°56.096 124.6 -999 135 6.1
2007-11-27 07:35:19 51°13.599 2°56.095 124.6 -999 145 6.2
2007-11-27 07:36:19 51°13.599 2°56.094 124.6 -999 345 6.2
2007-11-27 07:37:19 51°13.599 2°56.094 124.6 -999 132 6.1
2007-11-27 07:38:19 51°13.599 2°56.094 124.6 -999 331 6.1
2007-11-27 07:39:19 51°13.599 2°56.094 124.6 -999 318 6.1
2007-11-27 07:40:19 51°13.599 2°56.094 124.6 -999 179 6.1
2007-11-27 07:41:19 51°13.599 2°56.094 124.6 -999 156 6.2
2007-11-27 07:42:19 51°13.599 2°56.094 124.6 -999 355 6.2
2007-11-27 07:43:19 51°13.599 2°56.094 124.6 -999 86 6.1
2007-11-27 07:44:19 51°13.599 2°56.094 125.5 -999 88 6.2
2007-11-27 07:45:19 51°13.599 2°56.095 124.6 0.1 85 6.1
2007-11-27 07:46:19 51°13.598 2°56.095 116 0.1 173 6.1
2007-11-27 07:47:19 51°13.603 2°56.073 110.9 2.6 291 -999
2007-11-27 07:48:19 51°13.63 2°55.973 118.5 4.9 297 -999
2007-11-27 07:49:19 51°13.67 2°55.851 115.7 5.1 294 -999
2007-11-27 07:50:19 51°13.692 2°55.751 110.3 2.6 288 10.4
2007-11-27 07:51:19 51°13.696 2°55.755 66 0.8 249 11.4
2007-11-27 07:52:19 51°13.687 2°55.725 48.9 0.5 250 11.5
2007-11-27 07:53:19 51°13.729 2°55.714 342.7 5.1 335 9.6
2007-11-27 07:54:17 51°13.839 2°55.633 337.9 8.5 334 8.8
2007-11-27 07:55:17 51°13.976 2°55.532 337.7 9.3 335 9
2007-11-27 07:56:16 51°14.115 2°55.432 337.8 9.2 334 9.1
2007-11-27 07:57:15 51°14.241 2°55.29 322.2 9.9 319 9.2
2007-11-27 07:58:15 51°14.357 2°55.074 305.2 11.5 301 8.9
2007-11-27 07:59:15 51°14.431 2°54.775 286.9 12.7 281 9.1
2007-11-27 08:00:15 51°14.409 2°54.442 256.6 12.8 253 7.9
2007-11-27 08:01:15 51°14.323 2°54.13 247.4 13 247 7.4
2007-11-27 08:02:15 51°14.223 2°53.825 236.4 13.3 234 7.5
2007-11-27 08:03:15 51°14.12 2°53.513 250.3 13.4 244 7.7
2007-11-27 08:04:15 51°14.008 2°53.203 248.2 13.5 248 8
2007-11-27 08:05:15 51°13.906 2°52.891 239.2 12.3 237 8.3
2007-11-27 08:06:15 51°13.841 2°52.665 256.9 7.8 247 8.8
2007-11-27 08:07:15 51°13.772 2°52.555 194.8 5.2 201 8.9
2007-11-27 08:08:15 51°13.706 2°52.582 114.3 3.6 131 8.5
2007-11-27 08:09:15 51°13.714 2°52.657 58.4 3.8 58 8.3
2007-11-27 08:10:15 51°13.761 2°52.793 60.7 7.4 59 8.3
2007-11-27 08:11:15 51°13.825 2°52.982 61 8.3 58 7.9
2007-11-27 08:12:15 51°13.883 2°53.133 65.8 5.1 66 8
2007-11-27 08:13:15 51°13.907 2°53.234 63.3 3.3 63 8
2007-11-27 08:14:15 51°13.927 2°53.295 59.3 2 57 7.9
2007-11-27 08:15:15 51°13.959 2°53.3 0.8 2.6 331 8
2007-11-27 08:16:15 51°13.992 2°53.254 341.8 2.3 311 8.2
2007-11-27 08:17:15 51°14.008 2°53.206 333.1 2 291 8.4
2007-11-27 08:18:15 51°14.014 2°53.158 326.1 1.8 271 8.6
2007-11-27 08:19:15 51°14.02 2°53.101 323.7 3.3 294 8.6
2007-11-27 08:20:15 51°14.023 2°53.047 345.8 1.6 233 8.7
2007-11-27 08:21:15 51°14.007 2°53.019 356.2 0.9 222 8.9
2007-11-27 08:22:17 51°14.007 2°53.008 37.2 0.2 2 8.8
2007-11-27 08:23:15 51°14.01 2°53.005 40.4 0.3 302 8.8
2007-11-27 08:24:15 51°14.011 2°53.002 41.7 0.1 4 8.8
2007-11-27 08:25:15 51°14.012 2°53 42.8 0.2 291 8.7
2007-11-27 08:26:15 51°14.012 2°53.001 47 0.2 140 8.8
2007-11-27 08:27:15 51°14.012 2°53 47.3 -999 115 8.8
2007-11-27 08:28:15 51°14.011 2°53.001 47.8 0.1 201 8.8
2007-11-27 08:29:15 51°14.011 2°53.001 46.4 0.1 303 8.8
2007-11-27 08:30:15 51°14.011 2°53.002 45.3 0.3 322 8.8
2007-11-27 08:31:15 51°14.011 2°53.002 45.3 0.2 134 8.7
2007-11-27 08:32:15 51°14.011 2°53.002 45 -999 4 8.9
2007-11-27 08:33:15 51°14.011 2°53.002 45.6 0.4 131 8.9
2007-11-27 08:34:15 51°14.012 2°53.001 41.4 0.3 322 8.7
2007-11-27 08:35:15 51°14.014 2°53 37.3 0.2 334 8.8
2007-11-27 08:36:15 51°14.017 2°52.999 38.7 0.1 6 8.8
2007-11-27 08:37:15 51°14.018 2°52.999 40.1 0.1 127 8.8
2007-11-27 08:38:15 51°14.018 2°52.998 41.3 0.1 216 8.8
2007-11-27 08:39:15 51°14.016 2°52.999 43.4 0.3 135 8.8
2007-11-27 08:40:15 51°14.015 2°52.999 41.2 -999 334 8.9
2007-11-27 08:41:15 51°14.015 2°53 39.4 0.2 324 8.9
2007-11-27 08:42:15 51°14.015 2°52.999 39.1 0.1 292 8.9
2007-11-27 08:43:15 51°14.015 2°53 39.5 0.1 50 8.9
2007-11-27 08:44:15 51°14.015 2°53 38.9 0.1 283 8.9
2007-11-27 08:45:15 51°14.016 2°53 38.5 0.1 321 8.8
2007-11-27 08:46:15 51°14.016 2°53 39.9 0.1 199 8.8
2007-11-27 08:47:15 51°14.015 2°53 39.9 -999 163 8.9
2007-11-27 08:48:15 51°14.015 2°53 38.6 0.1 123 8.9
2007-11-27 08:49:15 51°14.016 2°52.999 38.4 0.4 300 8.9
2007-11-27 08:50:15 51°14.016 2°52.999 38.7 0.2 306 8.9
2007-11-27 08:51:15 51°14.016 2°52.999 38.4 0.1 76 9
2007-11-27 08:52:15 51°14.016 2°52.999 38.5 0.1 282 9
2007-11-27 08:53:15 51°14.015 2°53 38 0.1 288 8.9
2007-11-27 08:54:15 51°14.015 2°53 36.5 0.3 116 9
2007-11-27 08:55:15 51°14.015 2°53 36.3 0.2 82 9.2
2007-11-27 08:56:15 51°14.015 2°53 35.5 0.2 309 9.1
2007-11-27 08:57:15 51°14.016 2°52.999 35.1 0.3 301 9
2007-11-27 08:58:15 51°14.016 2°53 35.5 0.6 125 9.2
2007-11-27 08:59:15 51°14.015 2°53 35.5 0.3 139 9.1
2007-11-27 09:00:15 51°14.015 2°53 35.2 0.1 353 9.2
2007-11-27 09:01:15 51°14.015 2°53 34.8 0.1 115 9.1
2007-11-27 09:02:15 51°14.015 2°53 34.7 0.2 310 9.1
2007-11-27 09:03:15 51°14.016 2°53 35.1 -999 63 9.2
2007-11-27 09:04:15 51°14.015 2°53 36 0.2 111 9.1
2007-11-27 09:05:15 51°14.015 2°53 36.2 0.1 312 9.1
2007-11-27 09:06:15 51°14.016 2°52.999 35 0.3 311 9.1
2007-11-27 09:07:15 51°14.017 2°53 35.2 0.2 118 9.1
2007-11-27 09:08:15 51°14.017 2°52.999 36.3 0.2 262 9
2007-11-27 09:09:15 51°14.016 2°52.999 36.1 -999 306 9.1
2007-11-27 09:10:15 51°14.017 2°52.999 34.8 0.1 315 9.3
2007-11-27 09:11:15 51°14.017 2°52.999 37 -999 354 9.2
2007-11-27 09:12:15 51°14.017 2°52.999 37 0.1 162 9.3
2007-11-27 09:13:15 51°14.017 2°52.999 37.5 0.5 309 9.2
2007-11-27 09:14:15 51°14.017 2°52.999 37.5 0.1 154 9.4
2007-11-27 09:15:15 51°14.016 2°52.999 38.9 -999 203 9.2
2007-11-27 09:16:15 51°14.016 2°53 37.9 0.3 128 9.3
2007-11-27 09:17:15 51°14.015 2°52.999 37.7 0.3 300 9.2
2007-11-27 09:18:15 51°14.016 2°53 36.1 -999 196 9.3
2007-11-27 09:19:15 51°14.016 2°53 35.5 0.1 317 9.4
2007-11-27 09:20:15 51°14.017 2°53 35.3 0.2 302 9.4
2007-11-27 09:21:15 51°14.017 2°52.999 36.4 -999 336 9.3
2007-11-27 09:22:15 51°14.018 2°53 35.2 0.1 109 9.4
2007-11-27 09:23:15 51°14.019 2°53 35.8 0.5 122 9.4
2007-11-27 09:24:15 51°14.019 2°52.999 36.7 0.1 135 9.3
2007-11-27 09:25:15 51°14.019 2°52.999 37.5 0.1 209 9.4
2007-11-27 09:26:15 51°14.018 2°52.999 38.1 0.1 67 9.5
2007-11-27 09:27:15 51°14.017 2°52.999 36.7 0.3 290 9.4
2007-11-27 09:28:15 51°14.017 2°53 38.2 0.2 101 9.4
2007-11-27 09:29:15 51°14.016 2°53 36.7 0.1 314 9.5
2007-11-27 09:30:15 51°14.016 2°53 36 -999 107 9.4
2007-11-27 09:31:15 51°14.017 2°53 36.2 0.4 114 9.4
2007-11-27 09:32:15 51°14.017 2°53 36.2 0.1 226 9.4
2007-11-27 09:33:15 51°14.016 2°53 37.6 0.2 305 9.5
2007-11-27 09:34:15 51°14.016 2°53 38.3 0.1 239 9.4
2007-11-27 09:35:15 51°14.016 2°53.001 37.5 -999 273 9.5
2007-11-27 09:36:15 51°14.016 2°53 35.9 -999 12 9.5
2007-11-27 09:37:15 51°14.016 2°53.001 36.2 -999 350 9.5
2007-11-27 09:38:15 51°14.016 2°53.001 37 0.1 242 9.5
2007-11-27 09:39:15 51°14.015 2°53.001 38.1 0.1 191 9.5
2007-11-27 09:40:15 51°14.014 2°53.001 38 0.1 231 9.6
2007-11-27 09:41:15 51°14.014 2°53.001 37 0.2 132 9.5
2007-11-27 09:42:15 51°14.015 2°53.001 36.2 -999 286 9.6
2007-11-27 09:43:15 51°14.016 2°53.001 34.2 0.2 297 9.7
2007-11-27 09:44:15 51°14.017 2°53 34 0.1 336 9.7
2007-11-27 09:45:15 51°14.017 2°53 35.5 0.1 200 9.7
2007-11-27 09:46:15 51°14.017 2°53 36.8 0.2 126 9.5
2007-11-27 09:47:15 51°14.017 2°53 36.2 0.3 120 9.6
2007-11-27 09:48:15 51°14.018 2°53 36.5 0.1 266 9.7
2007-11-27 09:49:15 51°14.018 2°52.999 36.5 0.4 308 9.6
2007-11-27 09:50:15 51°14.018 2°52.999 36.6 0.3 308 9.6
2007-11-27 09:51:15 51°14.018 2°53 37.7 0.1 157 9.6
2007-11-27 09:52:15 51°14.018 2°53 37.7 0.3 130 9.7
2007-11-27 09:53:15 51°14.017 2°53 37.8 0.1 132 9.8
2007-11-27 09:54:15 51°14.016 2°53 38.1 0.1 136 9.7
2007-11-27 09:55:15 51°14.016 2°53 36.4 0.1 319 9.8
2007-11-27 09:56:15 51°14.015 2°53 37 0.1 308 9.8
2007-11-27 09:57:15 51°14.016 2°53 35.6 0.1 84 9.8
2007-11-27 09:58:15 51°14.016 2°53.001 34.7 0.2 106 9.8
2007-11-27 09:59:15 51°14.017 2°53 35.1 0.2 111 9.8
2007-11-27 10:00:15 51°14.018 2°53 37.1 0.2 119 9.8
2007-11-27 10:01:15 51°14.017 2°52.999 37.9 0.2 311 9.9
2007-11-27 10:02:16 51°14.017 2°53 37 0.3 307 9.8
2007-11-27 10:03:15 51°14.018 2°53 36.2 0.2 87 9.9
2007-11-27 10:04:15 51°14.018 2°53 36.6 0.1 202 9.8
2007-11-27 10:05:15 51°14.018 2°53 36.7 0.3 286 9.8
2007-11-27 10:06:16 51°14.018 2°53 37.1 0.4 289 9.8
2007-11-27 10:07:15 51°14.017 2°53 37 0.1 158 9.9
2007-11-27 10:08:15 51°14.017 2°53 35.5 0.6 305 9.9
2007-11-27 10:09:15 51°14.017 2°53 34.9 0.3 304 9.9
2007-11-27 10:10:15 51°14.018 2°53 34.6 0.1 349 9.8
2007-11-27 10:11:15 51°14.018 2°53 34.9 0.3 116 9.9
2007-11-27 10:12:15 51°14.018 2°53 34.8 0.1 177 9.8
2007-11-27 10:13:15 51°14.018 2°53 34.8 0.1 187 9.7
2007-11-27 10:14:15 51°14.016 2°52.999 36.7 0.4 299 9.9
2007-11-27 10:15:15 51°14.015 2°53.001 37.3 0.1 276 9.9
2007-11-27 10:16:15 51°14.015 2°53.001 34.4 0.2 109 9.9
2007-11-27 10:17:15 51°14.016 2°53.001 32.7 0.2 109 10
2007-11-27 10:18:15 51°14.018 2°53 33.1 0.1 314 9.9
2007-11-27 10:19:15 51°14.018 2°53 33.3 0.2 277 10
2007-11-27 10:20:15 51°14.018 2°53 33.8 0.2 292 10
2007-11-27 10:21:15 51°14.02 2°53.007 43.2 0.7 79 10
2007-11-27 10:22:15 51°14.027 2°53.023 46.4 0.9 74 10
2007-11-27 10:23:15 51°14.033 2°53.035 43.9 0.5 58 10.1
2007-11-27 10:24:15 51°14.037 2°53.037 38 0.5 317 10
2007-11-27 10:25:15 51°14.038 2°53.033 33.9 0.2 193 10
2007-11-27 10:26:15 51°14.037 2°53.025 28.3 0.4 187 10.1
2007-11-27 10:27:15 51°14.032 2°53.015 26.1 0.5 204 10.1
2007-11-27 10:28:15 51°14.027 2°53.002 22.2 0.6 234 10.2
2007-11-27 10:29:16 51°14.019 2°52.988 19.6 0.9 240 10.1
2007-11-27 10:30:15 51°14.011 2°52.975 19.3 0.7 221 10.2
2007-11-27 10:31:15 51°14.002 2°52.961 20.2 0.8 226 10.2
2007-11-27 10:32:15 51°13.992 2°52.947 21.5 1 238 10.1
2007-11-27 10:33:15 51°13.988 2°52.941 39.2 1.1 51 10
2007-11-27 10:34:15 51°13.978 2°53.002 119 3.7 141 10.1
2007-11-27 10:35:15 51°13.899 2°52.99 211.3 6.4 214 9.9
2007-11-27 10:36:16 51°13.813 2°52.799 237.2 10.8 240 10
2007-11-27 10:37:15 51°13.708 2°52.545 240 12.1 237 10
2007-11-27 10:38:16 51°13.608 2°52.263 245 12.1 244 10.1
2007-11-27 10:39:15 51°13.524 2°52.029 234.3 6.5 235 10.3
2007-11-27 10:40:16 51°13.487 2°51.945 256.9 2.9 246 10.4
2007-11-27 10:41:15 51°13.471 2°51.885 268 2.1 255 10.4
2007-11-27 10:42:15 51°13.457 2°51.834 275 1.9 247 10.6
2007-11-27 10:43:15 51°13.446 2°51.791 280.8 1.7 243 10.5
2007-11-27 10:44:15 51°13.435 2°51.753 288.6 1.7 236 10.6
2007-11-27 10:45:15 51°13.423 2°51.72 288.3 1.3 239 10.4
2007-11-27 10:46:15 51°13.411 2°51.69 288.3 1.2 240 10.6
2007-11-27 10:47:16 51°13.404 2°51.633 291.8 4.2 275 10.6
2007-11-27 10:48:15 51°13.388 2°51.514 250.8 4.9 242 10.6
2007-11-27 10:49:16 51°13.346 2°51.412 234.4 4.3 228 10.7
2007-11-27 10:50:16 51°13.306 2°51.332 236.9 3.5 240 10.7
2007-11-27 10:51:15 51°13.288 2°51.296 250.3 0.6 222 11
2007-11-27 10:52:17 51°13.277 2°51.283 253.6 0.8 222 4.8
2007-11-27 10:53:15 51°13.266 2°51.271 253.7 0.9 218 10.7
2007-11-27 10:54:15 51°13.254 2°51.257 251.1 1.3 193 10.7
2007-11-27 10:55:15 51°13.242 2°51.244 246 1.2 199 10.7
2007-11-27 10:56:16 51°13.206 2°51.153 245.4 8.7 242 10.6
2007-11-27 10:57:15 51°13.113 2°50.875 244 13.4 247 10.7
2007-11-27 10:58:15 51°13.017 2°50.551 250.4 13.6 248 11.1
2007-11-27 10:59:15 51°12.92 2°50.227 245.3 13.5 245 11.2
2007-11-27 11:00:15 51°12.818 2°49.906 246.7 13.5 244 11.2
2007-11-27 11:01:16 51°12.716 2°49.578 245 13.5 242 11.6
2007-11-27 11:02:15 51°12.619 2°49.261 245 13.6 245 11.8
2007-11-27 11:03:16 51°12.517 2°48.935 245.6 13.5 243 11.9
2007-11-27 11:04:15 51°12.425 2°48.615 247.6 13.4 247 12.1
2007-11-27 11:05:15 51°12.325 2°48.297 245.3 13.5 244 12.4
2007-11-27 11:06:16 51°12.228 2°47.968 245.5 13.6 246 12.5
2007-11-27 11:07:16 51°12.13 2°47.648 246.9 13.3 245 12.5
2007-11-27 11:08:16 51°12.036 2°47.324 247.8 13.5 247 12.7
2007-11-27 11:09:16 51°11.958 2°46.993 257.1 13.4 258 12.9
2007-11-27 11:10:16 51°11.896 2°46.652 252.3 13.4 250 13.1
2007-11-27 11:11:16 51°11.808 2°46.325 249.5 13.4 247 13
2007-11-27 11:12:16 51°11.725 2°45.995 248.8 13.4 245 13.1
2007-11-27 11:13:16 51°11.64 2°45.667 248.7 13.5 244 13
2007-11-27 11:14:16 51°11.556 2°45.338 249.6 13.4 250 13.3
2007-11-27 11:15:16 51°11.48 2°45.007 255.2 13.4 251 13.1
2007-11-27 11:16:16 51°11.417 2°44.67 257.1 13.2 254 13.2
2007-11-27 11:17:16 51°11.371 2°44.326 258.3 13.3 256 13.3
2007-11-27 11:18:16 51°11.323 2°43.985 259.1 13.1 258 13.2
2007-11-27 11:19:16 51°11.274 2°43.641 259.4 13.3 259 13.3
2007-11-27 11:20:16 51°11.234 2°43.293 263.9 13.2 262 13.2
2007-11-27 11:21:16 51°11.193 2°42.947 260.7 13.3 261 13.2
2007-11-27 11:22:16 51°11.157 2°42.681 254.9 7.4 256 13.3
2007-11-27 11:23:16 51°11.137 2°42.519 260.8 5.8 262 13.2
2007-11-27 11:24:16 51°11.126 2°42.378 270 5.3 265 13.3
2007-11-27 11:25:16 51°11.109 2°42.244 259.2 5.1 253 13.3
2007-11-27 11:26:16 51°11.094 2°42.121 274.6 3.9 268 13.1
2007-11-27 11:27:16 51°11.092 2°42.058 285.9 0.8 226 13
2007-11-27 11:28:16 51°11.086 2°42.052 291.3 0.2 213 -999
2007-11-27 11:29:19 51°11.079 2°42.047 289.1 0.3 191 13.3
2007-11-27 11:30:17 51°11.074 2°42.044 286.5 0.2 181 13.2
2007-11-27 11:31:16 51°11.068 2°42.03 279.2 2.4 265 13.5
2007-11-27 11:32:16 51°11.012 2°41.91 229.3 9.2 226 13.4
2007-11-27 11:33:16 51°10.897 2°41.67 236.1 12.1 237 13.5
2007-11-27 11:34:16 51°10.774 2°41.419 233.9 12 234 13.4
2007-11-27 11:35:16 51°10.657 2°41.161 235.2 11.9 231 13.6
2007-11-27 11:36:16 51°10.529 2°40.916 232.4 11.9 231 13.7
2007-11-27 11:37:16 51°10.402 2°40.672 230.6 12 228 13.4
2007-11-27 11:38:16 51°10.286 2°40.444 232.5 9.5 233 13.1
2007-11-27 11:39:16 51°10.195 2°40.279 230.8 7 225 13
2007-11-27 11:40:16 51°10.135 2°40.186 225.2 4 222 12.8
2007-11-27 11:41:16 51°10.098 2°40.129 241.6 2.5 232 12.7
2007-11-27 11:42:16 51°10.084 2°40.083 254.9 1.5 237 12.8
2007-11-27 11:43:16 51°10.08 2°40.071 267.6 0.3 259 12.7
2007-11-27 11:44:16 51°10.079 2°40.066 279.5 0.3 334 12.9
2007-11-27 11:45:16 51°10.083 2°40.046 288.2 3.1 289 13
2007-11-27 11:46:16 51°10.083 2°39.857 270.7 10.5 269 13.1
2007-11-27 11:47:16 51°10.085 2°39.55 274.1 11.9 273 14
2007-11-27 11:48:16 51°10.092 2°39.235 274.9 12 273 15.2
2007-11-27 11:49:16 51°10.099 2°38.918 274 12.1 273 16.2
2007-11-27 11:50:16 51°10.12 2°38.598 279.9 12.2 279 16.8
2007-11-27 11:51:16 51°10.148 2°38.278 279 12.1 278 17.5
2007-11-27 11:52:16 51°10.174 2°37.961 278.5 12.1 279 18.4
2007-11-27 11:53:16 51°10.204 2°37.645 278.8 12 279 19.6
2007-11-27 11:54:16 51°10.257 2°37.34 295.8 12.1 297 19.5
2007-11-27 11:55:16 51°10.361 2°37.073 302.6 11.6 302 18.6
2007-11-27 11:56:16 51°10.502 2°36.868 323.8 11.5 322 10.9
2007-11-27 11:57:16 51°10.676 2°36.742 346.2 11.8 348 11.5
2007-11-27 11:58:16 51°10.877 2°36.76 5.8 12.3 5 13.5
2007-11-27 11:59:16 51°11.081 2°36.784 2.8 12.3 4 14.2
2007-11-27 12:00:16 51°11.286 2°36.803 3.4 12.4 3 14.8
2007-11-27 12:01:16 51°11.491 2°36.817 2.3 12.4 3 13.8
2007-11-27 12:02:16 51°11.696 2°36.833 1.7 12.2 3 13.3
2007-11-27 12:03:16 51°11.9 2°36.845 0.4 12.2 1 12.4
2007-11-27 12:04:16 51°12.102 2°36.858 0.7 12.2 2 12.5
2007-11-27 12:05:16 51°12.305 2°36.873 0.2 12.2 3 12.1
2007-11-27 12:06:16 51°12.509 2°36.89 1 12.4 5 11.1
2007-11-27 12:07:16 51°12.708 2°36.908 0.2 12 3 11.2
2007-11-27 12:08:16 51°12.906 2°36.924 359.4 11.9 1 11.1
2007-11-27 12:09:16 51°13.104 2°36.932 359.3 12 359 10.6
2007-11-27 12:10:16 51°13.301 2°36.934 1 11.9 2 10.6
2007-11-27 12:11:16 51°13.497 2°36.943 359.7 12 1 14.6
2007-11-27 12:12:16 51°13.7 2°36.954 0.7 12.2 2 20.8
2007-11-27 12:13:16 51°13.904 2°36.964 357.9 12.3 359 22.7
2007-11-27 12:14:16 51°14.11 2°36.957 355.4 12.3 358 17.1
2007-11-27 12:15:16 51°14.311 2°36.944 356 12.1 358 13.7
2007-11-27 12:16:16 51°14.512 2°36.933 355.4 12.2 358 12.3
2007-11-27 12:17:16 51°14.714 2°36.923 354.9 12.1 359 12
2007-11-27 12:18:16 51°14.915 2°36.912 356.3 11.9 -999 12.2
2007-11-27 12:19:16 51°15.119 2°36.905 354.8 12.3 358 16.3
2007-11-27 12:20:16 51°15.323 2°36.894 354.9 12.3 357 15.5
2007-11-27 12:21:16 51°15.525 2°36.886 356.4 12.4 -999 14
2007-11-27 12:22:16 51°15.727 2°36.872 354.1 12.2 357 16.7
2007-11-27 12:23:16 51°15.931 2°36.856 355.3 12.4 356 21.7
2007-11-27 12:24:16 51°16.138 2°36.834 355.5 12.6 356 28.6
2007-11-27 12:25:16 51°16.344 2°36.81 355.2 12.1 356 29.8
2007-11-27 12:26:16 51°16.495 2°36.795 354.1 6.6 357 29.3
2007-11-27 12:27:16 51°16.571 2°36.793 347.8 3.4 358 29.2
2007-11-27 12:28:16 51°16.614 2°36.798 345.4 1.6 14 29.1
2007-11-27 12:29:16 51°16.627 2°36.819 350.3 1.1 51 29.2
2007-11-27 12:30:16 51°16.637 2°36.842 351.2 1 57 29.2
2007-11-27 12:31:16 51°16.645 2°36.868 354 1.2 66 29.5
2007-11-27 12:32:16 51°16.658 2°36.894 0.9 1.9 20 29.4
2007-11-27 12:33:16 51°16.712 2°36.962 54.3 6.3 56 29.3
2007-11-27 12:34:16 51°16.791 2°37.214 73 13.1 70 29.4
2007-11-27 12:35:15 51°16.842 2°37.555 83.6 13.6 79 29.4
2007-11-27 12:36:16 51°16.891 2°37.913 82.5 13.6 78 29.3
2007-11-27 12:37:16 51°16.944 2°38.267 82.6 13.7 77 26.4
2007-11-27 12:38:16 51°16.992 2°38.624 82.4 13.8 78 18.5
2007-11-27 12:39:16 51°17.032 2°38.991 82.8 14.3 80 12.3
2007-11-27 12:40:16 51°17.074 2°39.36 82.9 14.1 79 13.9
2007-11-27 12:41:16 51°17.119 2°39.727 82.2 14 80 16.5
2007-11-27 12:42:16 51°17.166 2°40.088 81.9 13.9 76 19.4
2007-11-27 12:43:16 51°17.212 2°40.452 82.5 14 79 23
2007-11-27 12:44:16 51°17.261 2°40.812 82.5 13.8 78 25.3
2007-11-27 12:45:16 51°17.312 2°41.166 82.2 13.4 77 26.3
2007-11-27 12:46:16 51°17.364 2°41.517 81.5 13.5 77 26.7
2007-11-27 12:47:16 51°17.415 2°41.871 82.7 13.8 78 27
2007-11-27 12:48:16 51°17.468 2°42.228 82.5 13.8 77 26.4
2007-11-27 12:49:16 51°17.523 2°42.585 81.9 14 75 24.1
2007-11-27 12:50:16 51°17.575 2°42.948 83.6 14.3 76 15.4
2007-11-27 12:51:16 51°17.622 2°43.317 81.6 14 77 15
2007-11-27 12:52:16 51°17.668 2°43.685 82.6 14.2 76 14.7
2007-11-27 12:53:16 51°17.715 2°44.057 81.2 14.3 79 19.5
2007-11-27 12:54:16 51°17.763 2°44.429 84 14.3 80 20
2007-11-27 12:55:16 51°17.809 2°44.799 84.4 14.1 78 20.9
2007-11-27 12:56:15 51°17.852 2°45.16 84.1 14.1 79 21
2007-11-27 12:57:16 51°17.893 2°45.529 84.3 13.7 81 21
2007-11-27 12:58:15 51°17.931 2°45.883 84.4 13.8 81 20
2007-11-27 12:59:16 51°17.968 2°46.249 84.4 13.7 81 19.5
2007-11-27 13:00:15 51°18.006 2°46.597 84.7 13.7 80 18.5
2007-11-27 13:01:16 51°18.043 2°46.961 85.7 13.6 82 18.7
2007-11-27 13:02:16 51°18.084 2°47.325 84.3 14.1 81 15.4
2007-11-27 13:03:16 51°18.129 2°47.69 83.1 14.1 77 15.2
2007-11-27 13:04:16 51°18.174 2°48.055 82.7 13.9 79 14
2007-11-27 13:05:16 51°18.217 2°48.422 83 14.2 80 12.2
2007-11-27 13:06:16 51°18.264 2°48.79 84.2 14.3 77 13.5
2007-11-27 13:07:16 51°18.31 2°49.158 83.8 14.2 79 13.5
2007-11-27 13:08:16 51°18.355 2°49.526 83.4 14.1 79 15.2
2007-11-27 13:09:16 51°18.402 2°49.892 84.1 14.2 78 16.8
2007-11-27 13:10:15 51°18.449 2°50.253 83 14.2 79 17.3
2007-11-27 13:11:16 51°18.491 2°50.579 87.3 10.4 82 17.2
2007-11-27 13:12:16 51°18.495 2°50.813 103.4 7.3 94 17.1
2007-11-27 13:13:16 51°18.509 2°50.968 84.7 4.9 71 17.2
2007-11-27 13:14:16 51°18.528 2°51.063 95 2.5 68 17.1
2007-11-27 13:15:16 51°18.544 2°51.103 120.2 1.7 54 17.1
2007-11-27 13:16:15 51°18.56 2°51.141 128.4 1.5 60 17.1
2007-11-27 13:17:14 51°18.574 2°51.181 134 1.3 65 4.1
2007-11-27 13:18:16 51°18.582 2°51.24 121.5 3.8 95 17.2
2007-11-27 13:19:14 51°18.615 2°51.4 70.6 11.1 68 16.9
2007-11-27 13:20:16 51°18.695 2°51.74 73.9 14 70 16.7
2007-11-27 13:21:14 51°18.773 2°52.078 73.6 14.1 69 16
2007-11-27 13:22:16 51°18.854 2°52.441 74.5 14 74 15.6
2007-11-27 13:23:14 51°18.919 2°52.785 77.4 14 75 15.1
2007-11-27 13:24:16 51°18.985 2°53.154 77.7 13.9 72 15.1
2007-11-27 13:25:15 51°19.051 2°53.504 76.2 14 73 14.7
2007-11-27 13:26:15 51°19.123 2°53.86 75.4 14 75 14.5
2007-11-27 13:27:16 51°19.193 2°54.225 77.3 14.1 72 14.7
2007-11-27 13:28:14 51°19.263 2°54.574 77.2 14.3 73 14.6
2007-11-27 13:29:16 51°19.339 2°54.946 75.4 14.2 72 14.5
2007-11-27 13:30:14 51°19.407 2°55.297 77.5 14.5 70 14.8
2007-11-27 13:31:16 51°19.483 2°55.67 76.2 14.4 70 14.7
2007-11-27 13:32:14 51°19.555 2°56.019 76 14.3 72 14.4
2007-11-27 13:33:16 51°19.633 2°56.394 76.8 14.6 69 14.3
2007-11-27 13:34:16 51°19.704 2°56.759 76.9 14.4 73 14.2
2007-11-27 13:35:16 51°19.779 2°57.125 76.3 14.4 72 13.9
2007-11-27 13:36:16 51°19.851 2°57.492 76.5 14.6 73 14.2
2007-11-27 13:37:14 51°19.923 2°57.848 76.6 14.5 73 13.9
2007-11-27 13:38:16 51°20 2°58.231 76.3 14.6 75 13.7
2007-11-27 13:39:14 51°20.073 2°58.588 76.1 14.6 69 13.3
2007-11-27 13:40:16 51°20.15 2°58.969 76.2 14.5 71 13.3
2007-11-27 13:41:14 51°20.223 2°59.325 75.1 14.5 73 13.1
2007-11-27 13:42:16 51°20.301 2°59.709 76.7 14.8 70 13.2
2007-11-27 13:43:16 51°20.377 3°0.081 76.7 14.9 70 13.6
2007-11-27 13:44:16 51°20.452 3°0.456 77.1 14.8 72 13.2
2007-11-27 13:45:16 51°20.531 3°0.83 76.9 14.8 71 13
2007-11-27 13:46:15 51°20.602 3°1.2 78 14.7 71 13.2
2007-11-27 13:47:16 51°20.678 3°1.581 76.5 14.9 70 13.3
2007-11-27 13:48:16 51°20.753 3°1.96 77.1 15 74 12.9
2007-11-27 13:49:16 51°20.832 3°2.34 75.6 15 70 13
2007-11-27 13:50:16 51°20.911 3°2.721 76.2 15.1 72 13.2
2007-11-27 13:51:15 51°20.99 3°3.099 75.8 15.1 72 13.1
2007-11-27 13:52:16 51°21.069 3°3.487 76.4 14.9 73 13.3
2007-11-27 13:53:16 51°21.146 3°3.869 76.7 14.9 71 13.3
2007-11-27 13:54:16 51°21.225 3°4.247 76.1 14.9 72 13.3
2007-11-27 13:55:16 51°21.303 3°4.622 73.5 14.7 67 13.3
2007-11-27 13:56:16 51°21.406 3°4.98 70.2 14.8 67 13.4
2007-11-27 13:57:14 51°21.498 3°5.334 71.6 15 67 13.4
2007-11-27 13:58:14 51°21.596 3°5.698 70.4 14.7 68 13.8
2007-11-27 13:59:16 51°21.691 3°6.081 76.8 14.9 77 13.8
2007-11-27 14:00:14 51°21.745 3°6.457 81.9 15 75 14.2
2007-11-27 14:01:16 51°21.811 3°6.855 79.5 15 74 14.3
2007-11-27 14:02:14 51°21.874 3°7.225 79.7 15 77 14.4
2007-11-27 14:03:16 51°21.939 3°7.624 81 15.1 72 14.5
2007-11-27 14:04:16 51°21.998 3°8.009 82.7 14.7 77 14.5
2007-11-27 14:05:16 51°22.053 3°8.393 83.2 14.9 78 14.9
2007-11-27 14:06:16 51°22.108 3°8.777 83.1 14.7 78 15.3
2007-11-27 14:07:15 51°22.163 3°9.156 83 14.9 77 15.4
2007-11-27 14:08:16 51°22.219 3°9.546 83.2 14.8 80 16.1
2007-11-27 14:09:14 51°22.271 3°9.918 84.9 14.6 81 16.5
2007-11-27 14:10:16 51°22.32 3°10.317 84.7 14.8 78 17.9
2007-11-27 14:11:15 51°22.364 3°10.694 84.9 14.5 80 21.2
2007-11-27 14:12:15 51°22.399 3°11.082 88.8 15.3 82 18.5
2007-11-27 14:13:16 51°22.437 3°11.481 86.7 14.8 81 18.4
2007-11-27 14:14:15 51°22.472 3°11.87 88.1 15.3 83 18
2007-11-27 14:15:16 51°22.503 3°12.243 87.8 12.3 81 17.3
2007-11-27 14:16:15 51°22.531 3°12.586 86.4 13.9 83 16.7
2007-11-27 14:17:16 51°22.553 3°12.885 89.4 8.9 83 16
2007-11-27 14:18:15 51°22.582 3°13.085 70.7 7 70 15.3
2007-11-27 14:19:16 51°22.615 3°13.22 46.5 3.3 75 14.9
2007-11-27 14:20:19 51°22.614 3°13.276 57.7 2.2 97 -999
2007-11-27 14:21:17 51°22.615 3°13.329 60.9 2.2 87 14.8
2007-11-27 14:22:16 51°22.618 3°13.385 63.4 2 79 14.6
2007-11-27 14:23:16 51°22.643 3°13.465 21.5 4.2 40 14.4
2007-11-27 14:24:16 51°22.693 3°13.475 296.6 2.2 322 14.2
2007-11-27 14:25:16 51°22.68 3°13.419 248.7 3.3 243 14.3
2007-11-27 14:26:16 51°22.641 3°13.279 254.7 8.4 249 14.7
2007-11-27 14:27:16 51°22.596 3°13.027 257.8 10.3 252 15.2
2007-11-27 14:28:16 51°22.551 3°12.764 258.4 10.3 255 16.2
2007-11-27 14:29:15 51°22.505 3°12.505 257.7 10.4 253 16.9
2007-11-27 14:30:16 51°22.46 3°12.233 258.7 10.4 253 17.5
2007-11-27 14:31:16 51°22.416 3°11.965 258.8 10.4 254 18.4
2007-11-27 14:32:15 51°22.372 3°11.703 257.8 10.5 257 18.6
2007-11-27 14:33:16 51°22.339 3°11.425 261.8 10.5 260 18.8
2007-11-27 14:34:16 51°22.309 3°11.249 242.2 3.6 236 19.1
2007-11-27 14:35:16 51°22.287 3°11.226 242 0.4 183 19.3
2007-11-27 14:36:16 51°22.285 3°11.235 245.3 0.7 95 19.1
2007-11-27 14:37:16 51°22.287 3°11.259 240.2 1.1 88 19.1
2007-11-27 14:38:15 51°22.289 3°11.288 231.4 0.6 123 19
2007-11-27 14:39:16 51°22.247 3°11.192 251.3 7.8 250 19.5
2007-11-27 14:40:16 51°22.2 3°10.95 252.8 10.1 250 21.1
2007-11-27 14:41:16 51°22.144 3°10.693 252.2 10.2 252 20.3
2007-11-27 14:42:16 51°22.08 3°10.443 247.1 10.1 247 18
2007-11-27 14:43:16 51°22.011 3°10.197 247.2 10.3 248 17.1
2007-11-27 14:44:16 51°21.944 3°9.949 247.3 10.2 240 16.2
2007-11-27 14:45:16 51°21.878 3°9.698 248.2 10.4 253 15.5
2007-11-27 14:46:16 51°21.803 3°9.448 243.7 10.5 242 14.7
2007-11-27 14:47:16 51°21.72 3°9.197 242.8 10.7 243 14
2007-11-27 14:48:16 51°21.639 3°8.943 244 10.7 244 13.4
2007-11-27 14:49:16 51°21.559 3°8.693 244.7 10.6 240 12.8
2007-11-27 14:50:16 51°21.474 3°8.45 241.6 10.6 240 12.3
2007-11-27 14:51:16 51°21.38 3°8.215 235.2 10.8 236 12.2
2007-11-27 14:52:16 51°21.277 3°7.988 236.1 10.4 237 11.4
2007-11-27 14:53:16 51°21.166 3°7.77 232.4 10.7 231 11.3
2007-11-27 14:54:16 51°21.055 3°7.556 233.3 10.5 234 10.6
2007-11-27 14:55:16 51°20.947 3°7.337 234.6 10.6 227 10.3
2007-11-27 14:56:16 51°20.834 3°7.123 232.5 10.3 235 10.6
2007-11-27 14:57:16 51°20.722 3°6.904 232.2 10.7 232 10.5
2007-11-27 14:58:16 51°20.611 3°6.687 232.9 10.6 235 10.4
2007-11-27 14:59:16 51°20.499 3°6.472 233.3 10.3 224 10.4
2007-11-27 15:00:16 51°20.389 3°6.253 233.6 10.5 233 10.6
2007-11-27 15:01:16 51°20.279 3°6.031 232.9 10.9 235 10.4
2007-11-27 15:02:16 51°20.179 3°5.797 237.3 10.7 241 10.6
2007-11-27 15:03:16 51°20.08 3°5.561 239.2 10.5 233 10.7
2007-11-27 15:04:16 51°19.98 3°5.329 237 10.7 237 10.8
2007-11-27 15:05:16 51°19.877 3°5.101 237.3 10.7 230 10.7
2007-11-27 15:06:16 51°19.777 3°4.86 236.3 11 237 10.8
2007-11-27 15:07:16 51°19.673 3°4.619 235.8 11.3 237 10.7
2007-11-27 15:08:16 51°19.571 3°4.376 237.2 10.9 240 10.9
2007-11-27 15:09:16 51°19.468 3°4.137 237.8 11.1 233 10.8
2007-11-27 15:10:16 51°19.369 3°3.89 238.5 10.9 241 11
2007-11-27 15:11:16 51°19.269 3°3.646 236.5 11.1 242 11.1
2007-11-27 15:12:16 51°19.168 3°3.402 238.5 10.8 236 10.6
2007-11-27 15:13:16 51°19.065 3°3.157 236.4 11.4 238 10.7
2007-11-27 15:14:16 51°18.966 3°2.907 237.7 11.1 239 10.7
2007-11-27 15:15:16 51°18.862 3°2.661 235.1 11.1 240 10.6
2007-11-27 15:16:16 51°18.759 3°2.416 237.7 11.1 235 10.5
2007-11-27 15:17:16 51°18.656 3°2.17 235.3 11.2 238 10.6
2007-11-27 15:18:16 51°18.556 3°1.92 238 11.2 241 10.5
2007-11-27 15:19:16 51°18.457 3°1.672 237.2 11 233 10.4
2007-11-27 15:20:16 51°18.356 3°1.428 236.3 11 240 10.4
2007-11-27 15:21:16 51°18.255 3°1.184 239.9 10.9 237 10.5
2007-11-27 15:22:16 51°18.155 3°0.936 238 11.1 237 10.5
2007-11-27 15:23:16 51°18.053 3°0.69 237.1 11.3 238 10.7
2007-11-27 15:24:16 51°17.951 3°0.449 237.2 10.9 234 10.6
2007-11-27 15:25:16 51°17.85 3°0.208 236.6 10.9 239 10.8
2007-11-27 15:26:16 51°17.751 2°59.963 238.2 11.2 236 11
2007-11-27 15:27:16 51°17.652 2°59.717 239.3 11.3 245 11.1
2007-11-27 15:28:16 51°17.567 2°59.457 240.2 11.3 247 11.1
2007-11-27 15:29:16 51°17.483 2°59.197 241.6 10.9 239 11.1
2007-11-27 15:30:16 51°17.4 2°58.938 244.4 11 242 11.2
2007-11-27 15:31:16 51°17.324 2°58.673 245.9 11.1 245 11.3
2007-11-27 15:32:16 51°17.25 2°58.406 247.5 11.2 246 11.1
2007-11-27 15:33:16 51°17.185 2°58.13 248.9 11.1 253 11.1
2007-11-27 15:34:16 51°17.116 2°57.855 247.3 11.2 247 11.2
2007-11-27 15:35:16 51°17.047 2°57.58 246.8 11.2 253 11.3
2007-11-27 15:36:16 51°16.976 2°57.306 245.5 11.3 248 11.7
2007-11-27 15:37:16 51°16.907 2°57.031 247.2 11.2 250 11.8
2007-11-27 15:38:16 51°16.838 2°56.758 246.8 11.2 248 12.2
2007-11-27 15:39:16 51°16.77 2°56.486 248.9 11 247 12.2
2007-11-27 15:40:16 51°16.704 2°56.212 246.9 11 246 12
2007-11-27 15:41:16 51°16.636 2°55.94 245.4 11.1 251 12.6
2007-11-27 15:42:16 51°16.57 2°55.668 247.4 10.9 249 12.7
2007-11-27 15:43:16 51°16.503 2°55.398 247.8 10.9 249 13
2007-11-27 15:44:16 51°16.435 2°55.127 248.3 11 246 12.9
2007-11-27 15:45:16 51°16.369 2°54.852 248.2 11.1 247 13.1
2007-11-27 15:46:16 51°16.299 2°54.58 246.3 11.1 247 13.3
2007-11-27 15:47:16 51°16.251 2°54.39 242.9 4.7 243 13.5
2007-11-27 15:48:16 51°16.232 2°54.32 242.4 1.7 251 13.5
2007-11-27 15:49:16 51°16.232 2°54.292 254.2 1 299 13.7
2007-11-27 15:50:16 51°16.237 2°54.279 254.7 1 336 13.5
2007-11-27 15:51:16 51°16.245 2°54.276 259.6 0.5 2 13.6
2007-11-27 15:52:16 51°16.257 2°54.279 264.3 0.6 336 13.5
2007-11-27 15:53:16 51°16.239 2°54.221 212.2 3.7 200 13.5
2007-11-27 15:54:16 51°16.158 2°54.186 203.6 5.7 196 13.5
2007-11-27 15:55:16 51°16.043 2°54.151 193.8 8.9 187 13.4
2007-11-27 15:56:16 51°15.879 2°54.157 176.3 11.3 169 13.1
2007-11-27 15:57:16 51°15.684 2°54.219 173.4 12 168 12.6
2007-11-27 15:58:16 51°15.488 2°54.282 169.3 12.1 164 11.9
2007-11-27 15:59:16 51°15.296 2°54.368 167.3 12.1 165 11.1
2007-11-27 16:00:16 51°15.101 2°54.457 167.3 11.9 163 10.8
2007-11-27 16:01:16 51°14.91 2°54.545 166.1 12.1 163 11.4
2007-11-27 16:02:16 51°14.722 2°54.654 163.9 12 155 11.8
2007-11-27 16:03:16 51°14.543 2°54.806 150.9 12.1 141 11.9
2007-11-27 16:04:16 51°14.39 2°55.025 134.8 12.4 133 12.5
2007-11-27 16:05:16 51°14.253 2°55.26 136.7 12.1 138 12.3
2007-11-27 16:06:16 51°14.122 2°55.408 157.1 7.5 156 12.1
2007-11-27 16:07:16 51°14.024 2°55.479 156.7 6 155 11.9
2007-11-27 16:08:16 51°13.936 2°55.544 157.4 5.8 157 12.7
2007-11-27 16:09:16 51°13.838 2°55.62 151.6 6.8 150 12.8
2007-11-27 16:10:17 51°13.746 2°55.735 139.1 6.8 137 -999
2007-11-27 16:11:17 51°13.677 2°55.862 128.3 5.5 126 11.5
2007-11-27 16:12:16 51°13.634 2°55.962 124.3 4.2 123 11.9
2007-11-27 16:13:18 51°13.608 2°56.052 110.4 2.9 109 -999
2007-11-27 16:14:17 51°13.601 2°56.088 122.8 0.5 133 9.8
2007-11-27 16:15:16 51°13.596 2°56.096 131.1 0.2 94 9.7